Sedgwick Reserve, California Weather observations

Data are for 10 minute period ending at time listed.
 Day   Time   Solar   Ave.   Ave.  Ave.  Vector  Max.   Baro.   Total    
  of    of     Rad.   Air    Rel.  Wind   Wind   Wind  Press.  Precip.   
Year   Day            Temp.  Hum.  Speed  Dir.   Gust                    
2016   (PST)  Kw/m2    F      %     mph   deg.    mph    mb.     in.     
-------------------------------------------------------------------------
 148    3:30   0.00   49.3    97    1.2   347     2.9   972.2    0.00 
 148    3:40   0.00   49.3    97    1.8   293     2.8   972.1    0.00 
 148    3:50   0.00   49.3    97    1.9   267     3.2   972.1    0.00 
 148    4:00   0.00   49.4    97    1.1   266     2.3   972.0    0.00 
 148    4:10   0.00   49.4    98    1.2    39     3.8   971.9    0.00 
 148    4:20   0.00   49.5    98    1.3    44     2.5   971.9    0.00 
 148    4:30   0.00   49.5    98    1.1     8     2.7   971.9    0.00 
 148    4:40   0.00   49.8    98    0.4   355     1.5   971.9    0.00 
 148    4:50   0.00   49.6    98    2.0     6     4.2   971.9    0.00 
 148    5:00   0.00   49.3    98    3.0   358     4.5   972.0    0.00 
 148    5:10   0.00   49.1    98    2.7   346     4.2   972.0    0.00 
 148    5:20   0.00   49.4    98    1.7   355     3.3   972.0    0.00 
 148    5:30   0.01   49.5    98    1.0    17     2.7   972.0    0.00 
 148    5:40   0.02   49.7    98    0.8    33     2.6   972.0    0.00 
 148    5:50   0.03   49.5    98    1.0    32     2.0   972.1    0.00 
 148    6:00   0.03   49.5    98    0.6     0     1.8   972.1    0.00 
 148    6:10   0.04   49.7    99    0.1    56     1.4   972.0    0.00 
 148    6:20   0.05   50.1    98    0.4    19     1.8   972.0    0.00 
 148    6:30   0.06   50.2    99    0.4    28     1.5   972.0    0.00 
 148    6:40   0.07   50.3    98    0.9     3     2.8   971.9    0.00 
 148    6:50   0.07   50.4    98    1.2   209     4.5   972.0    0.00 
 148    7:00   0.08   50.1    98    1.4   228     3.8   972.1    0.00 
 148    7:10   0.09   50.9    99    0.5    12     1.8   972.1    0.00 
 148    7:20   0.10   51.1    98    2.0   147     4.5   972.1    0.00 
 148    7:30   0.12   51.3    98    1.8   140     3.9   972.1    0.00 
 148    7:40   0.14   51.4    98    1.5   165     3.3   972.1    0.00 
 148    7:50   0.17   51.9    97    0.4   276     1.7   972.0    0.00 
 148    8:00   0.22   52.0    96    1.9   244     3.7   971.9    0.00 
 148    8:10   0.25   52.8    94    1.1   238     3.8   971.9    0.00 
 148    8:20   0.33   53.4    90    1.9   231     3.8   971.9    0.00 
 148    8:30   0.42   55.3    86    1.1   186     4.0   971.9    0.00 
 148    8:40   0.57   57.1    80    2.6   184     5.0   971.9    0.00 
 148    8:50   0.59   58.1    76    2.5   241     5.1   971.9    0.00 
 148    9:00   0.72   58.7    75    2.0   294     5.2   971.9    0.00 
 148    9:10   0.73   59.3    73    4.0   249     6.6   971.9    0.00 
 148    9:20   0.75   60.1    72    4.4   248     7.6   971.8    0.00 
 148    9:30   0.78   61.3    69    3.7   256     7.6   971.7    0.00 
 148    9:40   0.80   63.0    66    4.2   207     8.6   971.6    0.00 
 148    9:50   0.82   64.4    63    4.7   198     7.2   971.5    0.00 
 148   10:00   0.84   65.6    60    3.9   200     7.8   971.4    0.00 
 148   10:10   0.86   65.8    60    4.1   251     8.1   971.5    0.00 
 148   10:20   0.88   66.0    59    3.0   255     6.9   971.5    0.00 
 148   10:30   0.89   69.4    54    1.7   164     4.1   971.4    0.00 
 148   10:40   0.91   69.4    54    4.0   237     8.6   971.3    0.00 
 148   10:50   0.92   69.0    54    5.1   199     9.7   971.3    0.00 
 148   11:00   0.93   70.1    53    5.3   171    11.0   971.2    0.00 
 148   11:10   0.94   70.1    53    7.0   183    12.6   971.1    0.00 
 148   11:20   0.91   70.7    52    7.8   186    13.0   970.9    0.00 
 148   11:30   0.95   71.0    51    6.0   221    11.7   970.9    0.00 
 148   11:40   0.95   71.7    50    6.9   215    12.3   970.8    0.00 
 148   11:50   0.95   72.1    50    6.0   200    10.4   970.6    0.00 
 148   12:00   0.95   73.4    48    6.6   178    12.3   970.5    0.00 
 148   12:10   0.95   74.1    48    6.1   165    14.4   970.4    0.00 
 148   12:20   0.95   74.3    47    6.8   186    14.2   970.3    0.00 
 148   12:30   0.94   75.4    45    7.4   220    14.0   970.1    0.00 
 148   12:40   0.94   75.8    45    6.4   227    12.2   970.1    0.00 
 148   12:50   0.93   75.2    46    8.4   237    15.8   970.0    0.00 
 148   13:00   0.92   74.6    46    9.2   239    16.5   969.9    0.00 
 148   13:10   0.91   75.5    45   10.9   244    18.1   969.8    0.00 
 148   13:20   0.90   75.6    45    8.3   224    14.9   969.8    0.00 
 148   13:30   0.89   74.8    46   10.7   218    19.4   969.7    0.00 
 148   13:40   0.87   74.3    47    9.4   209    15.5   969.7    0.00 
 148   13:50   0.86   75.2    46    9.9   196    17.0   969.7    0.00 
 148   14:00   0.84   76.9    43    7.7   279    16.4   969.7    0.00 
 148   14:10   0.82   76.3    44    7.0   264    12.9   969.6    0.00 
 148   14:20   0.80   75.9    44    9.8   265    14.7   969.5    0.00 
 148   14:30   0.78   75.3    44   10.0   266    16.1   969.5    0.00 
 148   14:40   0.76   75.3    44    9.1   274    14.1   969.5    0.00 
 148   14:50   0.73   75.9    43    9.5   272    17.0   969.4    0.00 
 148   15:00   0.71   74.4    45   11.3   261    17.5   969.3    0.00 
 148   15:10   0.68   74.6    45   10.1   278    15.1   969.3    0.00 
 148   15:20   0.65   74.6    44   10.6   275    15.3   969.1    0.00 
 148   15:30   0.62   75.0    43    9.5   291    16.2   969.1    0.00 
 148   15:40   0.59   74.1    44   10.0   279    16.6   969.1    0.00 
 148   15:50   0.56   74.2    44   10.6   277    15.8   968.9    0.00 
 148   16:00   0.54   74.1    44   10.6   277    16.6   968.9    0.00 
 148   16:10   0.50   74.0    44    9.8   265    15.1   968.8    0.00 
 148   16:20   0.47   74.1    44    8.1   274    16.2   968.8    0.00 
 148   16:30   0.44   73.8    45    8.0   270    15.7   968.8    0.00 
 148   16:40   0.40   74.2    44    7.6   274    13.5   968.7    0.00 
 148   16:50   0.37   73.1    46    9.2   264    14.2   968.6    0.00 
 148   17:00   0.33   73.1    46    6.9   279    10.6   968.7    0.00 
 148   17:10   0.30   73.1    46    7.7   291    12.6   968.7    0.00 
 148   17:20   0.27   72.6    47    5.9   274    10.6   968.5    0.00 
 148   17:30   0.24   72.3    48    7.2   279    11.3   968.5    0.00 
 148   17:40   0.21   71.2    49    7.2   283    11.1   968.5    0.00 
 148   17:50   0.17   70.7    50    6.3   282    10.4   968.5    0.00 
 148   18:00   0.14   70.1    51    6.8   264    11.1   968.7    0.00 
 148   18:10   0.11   68.5    54    7.8   267    11.2   968.9    0.00 
 148   18:20   0.09   67.9    55    7.1   263    11.6   969.0    0.00 
 148   18:30   0.07   67.1    56    6.7   263     9.0   969.0    0.00 
 148   18:40   0.04   66.3    58    6.3   268     8.8   969.0    0.00 
 148   18:50   0.02   65.3    60    6.3   255     9.4   969.0    0.00 
 148   19:00   0.01   64.3    62    6.6   259    10.3   969.0    0.00 
 148   19:10   0.00   63.2    64    7.4   271    10.7   969.1    0.00 
 148   19:20   0.00   62.6    65    4.8   282     7.4   969.1    0.00 
 148   19:30   0.00   61.9    66    3.3   278     4.6   969.0    0.00 
 148   19:40   0.00   61.4    67    1.2   331     2.9   968.9    0.00 
 148   19:50   0.00   60.7    68    2.3   262     4.0   968.9    0.00 
 148   20:00   0.00   60.0    69    2.0   270     4.2   968.9    0.00 
 148   20:10   0.00   59.5    70    1.2   135     3.3   969.0    0.00 
 148   20:20   0.00   58.7    72    1.8   110     3.1   969.0    0.00 
 148   20:30   0.00   58.0    74    3.0   109     5.0   968.9    0.00 
 148   20:40   0.00   57.3    74    3.4   118     5.8   968.9    0.00 
 148   20:50   0.00   56.5    76    3.1   110     4.8   968.9    0.00 
 148   21:00   0.00   55.9    78    3.0   115     5.3   968.9    0.00 
 148   21:10   0.00   55.7    78    2.4    96     3.4   968.8    0.00 
 148   21:20   0.00   55.4    79    1.4    73     2.5   968.8    0.00 
 148   21:30   0.00   54.7    80    1.6    18     2.3   968.7    0.00 
 148   21:40   0.00   53.7    82    1.7     3     2.6   968.7    0.00 
 148   21:50   0.00   53.2    82    0.8   334     2.6   968.8    0.00 
 148   22:00   0.00   52.9    83    0.2   208     1.0   968.8    0.00 
 148   22:10   0.00   52.7    82    0.8   300     2.0   968.8    0.00 
 148   22:20   0.00   52.2    82    1.9   302     3.0   968.8    0.00 
 148   22:30   0.00   51.1    84    3.6     3     4.8   968.8    0.00 
 148   22:40   0.00   51.2    85    1.2   287     3.4   968.8    0.00 
 148   22:50   0.00   51.4    85    0.8   296     2.5   968.7    0.00 
 148   23:00   0.00   50.8    86    2.0   350     3.4   968.6    0.00 
 148   23:10   0.00   50.6    86    0.8   240     2.0   968.6    0.00 
 148   23:20   0.00   50.6    85    0.6   242     2.0   968.5    0.00 
 148   23:30   0.00   50.5    86    0.1   250     1.1   968.3    0.00 
 148   23:40   0.00   50.1    87    0.9   342     4.4   968.3    0.00 
 148   23:50   0.00   49.7    88    2.2     5     4.5   968.3    0.00 
 149    0:00   0.00   49.8    88    1.4   310     3.4   968.1    0.00 
 149    0:10   0.00   49.5    88    1.0   251     2.3   968.1    0.00 
 149    0:20   0.00   49.3    88    1.1   271     3.1   968.0    0.00 
 149    0:30   0.00   49.4    89    1.1   329     2.4   968.0    0.00 
 149    0:40   0.00   49.2    89    2.2   336     3.9   968.0    0.00 
 149    0:50   0.00   49.2    90    1.4   303     5.7   968.0    0.00 
 149    1:00   0.00   49.4    90    1.7    19     5.0   968.0    0.00 
 149    1:10   0.00   48.9    90    1.4   260     4.7   967.8    0.00 
 149    1:20   0.00   48.2    90    3.3    10     5.3   967.7    0.00 
 149    1:30   0.00   48.3    92    2.8   299     6.2   967.5    0.00 
 149    1:40   0.00   48.3    92    2.6   292     5.1   967.4    0.00 
 149    1:50   0.00   48.4    92    2.5   345     4.9   967.3    0.00 
 149    2:00   0.00   48.2    92    1.9   356     4.1   967.3    0.00 
 149    2:10   0.00   48.8    92    1.3   318     3.5   967.3    0.00 
 149    2:20   0.00   48.7    92    2.1   356     4.6   967.3    0.00 
 149    2:30   0.00   48.4    92    0.8   288     2.7   967.3    0.00 
 149    2:40   0.00   47.8    92    2.3     6     5.8   967.3    0.00 
 149    2:50   0.00   48.3    93    1.2   331     2.5   967.4    0.00 
 149    3:00   0.00   48.1    92    1.5   354     6.4   967.4    0.00 
 149    3:10   0.00   48.3    93    2.4   314     5.2   967.4    0.00 
 149    3:20   0.00   48.4    93    2.7   360     5.2   967.5    0.00 

Return to Sedgwick Reserve graphs page.


Western Regional Climate Center,wrcc@dri.edu